South Milford, Indiana
Current Conditions -  °F | °C
As of 3:55 AM on Thursday 27 Nov 2014 (Local Time) from KANQ Reporting Station
Overcast Overcast  
Wind Chill: 27°   Ceiling: 3500
Heat Index: 27°   Visibility: 10mi
Dew Point: 12°   Wind: 0mph
Humidity: 55%   Direction: NA
Pressure: 30.12"   Gusts: NA
Location:  41.53°N, 85.27°W
Report Text: KANQ 270855Z AUTO 00000KT 10SM BKN035 OVC041 M03/M11 A3012 RMK
Loading
Personal Weather Stations






























Interactive Weather Map New forecast layout! Learn more

10-Day Weather Forecast

Advertisements
Track Severe Weather on mobile